Time;durP1;ratioP1;P1;durP2;ratioP2;P2;SDS_P1;SDS_P2;PMS_P1;PMS_P2;Temp;Humidity;BMP_temperature;BMP_pressure;BME280_temperature;BME280_humidity;BME280_pressure;Samples;Min_cycle;Max_cycle;Signal;HPM_P1;HPM_P2
2022/12/30 00:00:46;;;;;;;6.27;2.33;;;9.10;1.00;;;;;;5056181;28;21303;-89
2022/12/30 00:03:19;;;;;;;6.97;2.07;;;9.00;1.00;;;;;;5051369;28;20422;-89
2022/12/30 00:09:00;;;;;;;5.10;1.80;;;8.80;1.00;;;;;;5071736;28;20536;-89
2022/12/30 00:35:06;;;;;;;5.67;1.77;;;9.10;1.00;;;;;;5073454;28;20784;-87
2022/12/30 00:37:39;;;;;;;4.37;1.80;;;9.20;1.00;;;;;;5077721;28;20634;-90
2022/12/30 00:40:10;;;;;;;5.72;1.70;;;9.20;1.00;;;;;;5070449;28;20441;-89
2022/12/30 00:45:49;;;;;;;5.37;2.23;;;9.10;1.00;;;;;;5050513;28;20426;-90
2022/12/30 00:57:30;;;;;;;4.95;1.70;;;8.50;1.00;;;;;;5065067;28;21044;-89
2022/12/30 01:00:39;;;;;;;;;;;;;;;;;;;;;
2022/12/30 01:03:08;;;;;;;7.43;2.33;;;8.30;1.00;;;;;;5084260;28;49124;-89
2022/12/30 01:05:52;;;;;;;;;;;;;;;;;;;;;
2022/12/30 01:08:26;;;;;;;7.00;2.43;;;8.20;1.00;;;;;;5065184;28;40102;-90
2022/12/30 01:11:07;;;;;;;6.53;2.00;;;8.20;1.00;;;;;;5095941;28;20419;-89
2022/12/30 01:13:51;;;;;;;8.13;2.53;;;8.20;1.00;;;;;;5075461;28;20407;-88
2022/12/30 01:16:39;;;;;;;4.55;1.67;;;8.20;1.00;;;;;;5083660;28;20228;-90
2022/12/30 01:19:38;;;;;;;6.70;2.63;;;8.20;1.00;;;;;;5060917;28;21002;-89
2022/12/30 01:22:18;;;;;;;5.68;1.73;;;8.20;1.00;;;;;;5072379;28;20290;-90
2022/12/30 01:24:59;;;;;;;6.18;2.15;;;8.20;1.00;;;;;;5084213;28;20703;-88
2022/12/30 01:27:37;;;;;;;6.00;1.70;;;8.20;1.00;;;;;;5090140;28;20321;-89
2022/12/30 01:30:06;;;;;;;8.55;1.50;;;8.30;1.00;;;;;;5068824;28;20208;-89
2022/12/30 01:32:49;;;;;;;12.60;3.50;;;8.30;1.00;;;;;;5064734;28;20240;-89
2022/12/30 01:35:22;;;;;;;7.40;1.60;;;8.40;1.00;;;;;;5085557;28;20244;-89
2022/12/30 01:38:00;;;;;;;5.75;1.63;;;8.40;1.00;;;;;;5091011;28;20468;-88
2022/12/30 01:40:29;;;;;;;6.37;1.73;;;8.40;1.00;;;;;;5092089;28;20227;-89
2022/12/30 01:43:11;;;;;;;;;;;;;;;;;;;;;
2022/12/30 01:46:00;;;;;;;6.72;2.60;;;8.40;1.00;;;;;;5091333;28;50389;-88
2022/12/30 01:48:50;;;;;;;8.50;4.10;;;8.50;1.00;;;;;;5089862;28;20239;-89
2022/12/30 01:51:23;;;;;;;5.97;2.22;;;8.40;1.00;;;;;;5089430;28;20449;-89
2022/12/30 01:53:59;;;;;;;6.70;2.30;;;8.50;1.00;;;;;;5091609;28;20236;-89
2022/12/30 01:56:39;;;;;;;8.40;2.73;;;8.50;1.00;;;;;;5091691;28;20447;-88
2022/12/30 01:59:17;;;;;;;5.50;1.47;;;8.50;1.00;;;;;;5092346;27;20455;-89
2022/12/30 02:01:57;;;;;;;7.23;1.70;;;8.50;1.00;;;;;;5107159;28;20456;-88
2022/12/30 02:04:30;;;;;;;5.00;1.50;;;8.40;1.00;;;;;;5090813;28;20463;-89
2022/12/30 02:07:18;;;;;;;5.43;2.37;;;8.50;1.00;;;;;;5093017;28;20249;-89
2022/12/30 02:09:57;;;;;;;10.77;2.77;;;8.50;1.00;;;;;;5093315;28;20449;-89
2022/12/30 02:12:31;;;;;;;5.07;1.98;;;8.50;1.00;;;;;;5090964;28;20399;-90
2022/12/30 02:15:07;;;;;;;6.33;2.50;;;8.50;1.00;;;;;;5107047;27;20219;-89
2022/12/30 02:21:18;;;;;;;8.07;4.30;;;8.40;1.00;;;;;;5100552;27;20228;-90
2022/12/30 02:24:30;;;;;;;;;;;;;;;;;;;;;
2022/12/30 02:27:30;;;;;;;5.87;2.17;;;8.30;1.00;;;;;;5093233;28;48600;-90
2022/12/30 02:30:28;;;;;;;8.10;2.22;;;8.30;1.00;;;;;;5063875;28;20405;-89
2022/12/30 02:33:40;;;;;;;7.85;1.73;;;8.30;1.00;;;;;;5066301;28;20228;-90
2022/12/30 02:36:29;;;;;;;5.95;1.83;;;8.40;1.00;;;;;;5101650;28;20228;-88
2022/12/30 02:39:22;;;;;;;7.32;1.73;;;8.50;1.00;;;;;;5092258;28;20221;-88
2022/12/30 02:45:05;;;;;;;6.70;2.20;;;8.60;1.00;;;;;;5056246;28;20237;-89
2022/12/30 02:47:46;;;;;;;4.90;1.60;;;8.60;1.00;;;;;;5066594;28;21032;-89
2022/12/30 02:53:18;;;;;;;4.53;1.40;;;8.60;1.00;;;;;;5075395;28;20558;-89
2022/12/30 02:56:08;;;;;;;5.43;1.80;;;8.60;1.00;;;;;;5089334;28;20234;-89
2022/12/30 03:03:56;;;;;;;5.40;1.63;;;8.70;1.00;;;;;;5090823;28;20225;-89
2022/12/30 03:05:18;;;;;;;8.23;2.10;;;8.70;1.00;;;;;;5097325;28;20893;-89
2022/12/30 03:08:18;;;;;;;6.20;1.80;;;8.70;1.00;;;;;;5084998;28;20528;-88
2022/12/30 03:11:20;;;;;;;7.27;2.67;;;8.70;1.00;;;;;;5078539;28;20431;-88
2022/12/30 03:14:08;;;;;;;8.90;2.30;;;8.70;1.00;;;;;;5078026;28;20541;-90
2022/12/30 03:16:49;;;;;;;7.18;2.13;;;8.60;1.00;;;;;;5070278;28;20500;-88
2022/12/30 03:19:27;;;;;;;6.68;1.95;;;8.50;1.00;;;;;;5080726;28;20319;-88
2022/12/30 03:27:03;;;;;;;7.07;2.10;;;8.40;1.00;;;;;;5096695;28;20239;-87
2022/12/30 03:28:19;;;;;;;10.95;2.85;;;8.20;1.00;;;;;;5077505;28;20238;-88
2022/12/30 03:31:00;;;;;;;7.00;2.43;;;8.20;1.00;;;;;;5083211;28;20574;-88
2022/12/30 03:33:41;;;;;;;6.60;1.93;;;8.20;1.00;;;;;;5090219;28;20531;-88
2022/12/30 03:36:18;;;;;;;8.33;3.10;;;8.10;1.00;;;;;;5091072;28;20543;-89
2022/12/30 03:38:59;;;;;;;6.07;2.10;;;8.00;1.00;;;;;;5089036;28;20472;-88
2022/12/30 03:41:51;;;;;;;5.60;2.33;;;8.00;1.00;;;;;;5071838;27;20452;-89
2022/12/30 03:44:26;;;;;;;9.57;2.60;;;7.90;1.00;;;;;;5025935;28;20219;-89
2022/12/30 03:46:58;;;;;;;6.65;1.95;;;7.90;1.00;;;;;;5023426;28;21335;-89
2022/12/30 03:49:31;;;;;;;9.10;2.67;;;7.80;1.00;;;;;;5031808;28;20239;-89
2022/12/30 03:52:01;;;;;;;9.30;2.20;;;7.70;1.00;;;;;;5041196;28;20928;-89
2022/12/30 03:54:40;;;;;;;7.78;2.40;;;7.70;1.00;;;;;;5008094;28;21119;-89
2022/12/30 03:57:11;;;;;;;7.05;2.22;;;7.70;1.00;;;;;;5025988;28;20717;-89
2022/12/30 03:59:43;;;;;;;7.38;2.20;;;7.70;1.00;;;;;;5026336;28;20229;-89
2022/12/30 04:02:10;;;;;;;6.82;2.35;;;7.80;1.00;;;;;;5051298;28;20263;-88
2022/12/30 04:04:48;;;;;;;11.10;1.92;;;7.80;1.00;;;;;;5096812;28;20371;-89
2022/12/30 04:07:23;;;;;;;7.30;1.80;;;7.80;1.00;;;;;;5049849;28;20233;-89
2022/12/30 04:09:59;;;;;;;11.18;2.67;;;7.80;1.00;;;;;;5090365;28;20245;-89
2022/12/30 04:12:31;;;;;;;8.23;2.92;;;7.90;1.00;;;;;;5073868;28;20232;-90
2022/12/30 04:15:00;;;;;;;5.65;2.05;;;7.90;1.00;;;;;;5097036;28;20220;-89
2022/12/30 04:17:29;;;;;;;8.88;1.75;;;7.90;1.00;;;;;;5076757;28;20415;-89
2022/12/30 04:20:20;;;;;;;6.93;3.05;;;7.90;1.00;;;;;;5093163;28;20234;-88
2022/12/30 04:22:49;;;;;;;8.15;2.40;;;7.80;1.00;;;;;;5096932;28;20259;-89
2022/12/30 04:25:31;;;;;;;7.15;2.33;;;7.70;1.00;;;;;;5057844;28;20222;-90
2022/12/30 04:28:07;;;;;;;14.00;3.15;;;7.60;1.00;;;;;;5077414;28;20215;-90
2022/12/30 04:30:49;;;;;;;7.38;2.20;;;7.60;1.00;;;;;;5051026;28;20251;-90
2022/12/30 04:33:30;;;;;;;6.60;2.40;;;7.60;1.00;;;;;;5057446;28;20220;-89
2022/12/30 04:35:59;;;;;;;7.10;2.22;;;7.50;1.00;;;;;;5062983;28;20231;-88
2022/12/30 04:38:52;;;;;;;;;;;;;;;;;;;;;
2022/12/30 04:41:31;;;;;;;;;;;;;;;;;;;;;
2022/12/30 04:44:07;;;;;;;9.57;2.95;;;7.40;1.00;;;;;;5058048;28;39250;-89
2022/12/30 04:47:10;;;;;;;8.68;2.60;;;7.30;1.00;;;;;;5093278;28;20221;-89
2022/12/30 04:50:08;;;;;;;8.27;2.75;;;7.30;1.00;;;;;;5097735;28;20231;-89
2022/12/30 04:52:39;;;;;;;8.77;2.47;;;7.20;1.00;;;;;;5099499;28;20241;-88
2022/12/30 04:55:26;;;;;;;7.80;2.20;;;7.10;1.00;;;;;;5097179;28;20247;-89
2022/12/30 05:04:15;;;;;;;6.03;2.28;;;7.10;1.00;;;;;;5168388;22;20422;-82
2022/12/30 05:06:46;;;;;;;10.47;2.50;;;7.10;1.00;;;;;;5014065;28;20241;-83
2022/12/30 05:09:16;;;;;;;7.00;2.10;;;7.10;1.00;;;;;;5019632;28;20505;-83
2022/12/30 05:11:46;;;;;;;4.70;2.05;;;7.10;1.00;;;;;;5016793;28;20337;-82
2022/12/30 05:14:13;;;;;;;5.03;2.00;;;7.10;1.00;;;;;;5010410;28;20297;-82
2022/12/30 05:16:47;;;;;;;5.45;2.58;;;7.00;1.00;;;;;;5021880;28;20274;-81
2022/12/30 05:19:15;;;;;;;9.30;2.00;;;7.00;1.00;;;;;;5020664;28;20995;-84
2022/12/30 05:21:46;;;;;;;8.07;2.33;;;7.00;1.00;;;;;;5022114;28;20238;-81
2022/12/30 05:26:57;;;;;;;8.13;1.73;;;6.90;1.00;;;;;;5028472;28;20239;-80
2022/12/30 05:29:28;;;;;;;7.20;2.50;;;6.90;1.00;;;;;;5020851;28;20246;-85
2022/12/30 05:31:57;;;;;;;6.50;2.17;;;6.90;1.00;;;;;;5011129;28;20792;-81
2022/12/30 05:34:25;;;;;;;8.23;2.45;;;6.90;1.00;;;;;;5006951;28;21075;-80
2022/12/30 05:36:54;;;;;;;10.27;2.25;;;6.80;1.00;;;;;;5017955;28;20239;-80
2022/12/30 05:39:22;;;;;;;6.82;2.22;;;6.80;1.00;;;;;;5011208;28;20242;-80
2022/12/30 05:41:49;;;;;;;7.00;2.30;;;6.80;1.00;;;;;;5010888;28;20291;-80
2022/12/30 05:44:16;;;;;;;8.68;2.53;;;6.80;1.00;;;;;;5007891;28;20261;-81
2022/12/30 05:46:43;;;;;;;6.13;2.60;;;6.80;1.00;;;;;;5005253;28;20278;-81
2022/12/30 05:49:10;;;;;;;6.57;1.90;;;6.80;1.00;;;;;;5008703;28;20698;-81
2022/12/30 05:51:39;;;;;;;7.50;3.30;;;6.80;1.00;;;;;;5011018;28;20231;-81
2022/12/30 05:54:06;;;;;;;13.20;2.78;;;6.70;1.00;;;;;;5002168;28;20223;-81
2022/12/30 05:56:37;;;;;;;12.02;2.53;;;6.70;1.00;;;;;;5011769;28;20326;-82
2022/12/30 05:59:04;;;;;;;7.28;2.38;;;6.70;1.00;;;;;;5008597;28;20317;-85
2022/12/30 06:01:37;;;;;;;14.63;3.00;;;6.60;1.00;;;;;;4987693;28;20247;-81
2022/12/30 06:04:06;;;;;;;8.65;3.05;;;6.60;1.00;;;;;;5002616;28;20239;-82
2022/12/30 06:06:36;;;;;;;5.60;1.92;;;6.60;1.00;;;;;;5015581;28;20245;-81
2022/12/30 06:09:05;;;;;;;8.43;2.85;;;6.50;1.00;;;;;;5001367;28;20292;-80
2022/12/30 06:11:33;;;;;;;8.88;3.30;;;6.50;1.00;;;;;;5019533;28;21058;-81
2022/12/30 06:14:00;;;;;;;9.43;3.10;;;6.50;1.00;;;;;;5014313;28;20234;-82
2022/12/30 06:16:30;;;;;;;8.95;2.85;;;6.40;1.00;;;;;;5022650;28;20293;-82
2022/12/30 06:18:57;;;;;;;7.65;2.55;;;6.40;1.00;;;;;;5017549;28;20242;-81
2022/12/30 06:21:24;;;;;;;7.25;3.00;;;6.40;1.00;;;;;;5017227;28;20321;-81
2022/12/30 06:23:50;;;;;;;9.30;2.40;;;6.40;1.00;;;;;;5019515;28;21078;-82
2022/12/30 06:26:19;;;;;;;6.47;2.25;;;6.40;1.00;;;;;;5017985;28;20239;-80
2022/12/30 06:28:46;;;;;;;9.85;2.10;;;6.30;1.00;;;;;;5017339;28;20278;-80
2022/12/30 06:31:14;;;;;;;7.70;2.20;;;6.30;1.00;;;;;;5018359;28;20242;-80
2022/12/30 06:33:41;;;;;;;9.80;2.72;;;6.30;1.00;;;;;;5024365;28;20290;-80
2022/12/30 06:36:09;;;;;;;8.25;2.50;;;6.30;1.00;;;;;;5017202;28;20781;-80
2022/12/30 06:38:37;;;;;;;9.05;2.22;;;6.30;1.00;;;;;;5015246;28;20258;-80
2022/12/30 06:41:04;;;;;;;7.13;2.25;;;6.20;1.00;;;;;;5016346;28;20263;-81
2022/12/30 06:43:35;;;;;;;6.55;2.22;;;6.20;1.00;;;;;;5016503;28;20242;-82
2022/12/30 06:46:02;;;;;;;7.05;1.95;;;6.20;1.00;;;;;;5008887;28;20237;-80
2022/12/30 06:48:29;;;;;;;7.55;2.20;;;6.20;1.00;;;;;;5020158;28;20231;-81
2022/12/30 06:51:00;;;;;;;9.90;2.80;;;6.20;1.00;;;;;;5012033;28;20246;-81
2022/12/30 06:53:27;;;;;;;8.48;2.25;;;6.10;1.00;;;;;;5016425;28;20334;-82
2022/12/30 06:55:56;;;;;;;12.38;2.67;;;6.10;1.00;;;;;;5014722;28;20262;-82
2022/12/30 06:58:23;;;;;;;6.05;2.70;;;6.10;1.00;;;;;;5016164;28;20227;-81
2022/12/30 07:00:52;;;;;;;9.25;3.78;;;6.10;1.00;;;;;;5015572;28;20239;-79
2022/12/30 07:03:19;;;;;;;10.35;2.90;;;6.10;1.00;;;;;;5020084;28;20246;-80
2022/12/30 07:05:48;;;;;;;8.10;2.42;;;6.00;1.00;;;;;;5002385;28;21046;-82
2022/12/30 07:08:17;;;;;;;6.47;1.95;;;6.00;1.00;;;;;;4992179;28;20343;-79
2022/12/30 07:10:44;;;;;;;12.95;3.33;;;5.90;1.00;;;;;;4998595;28;20307;-82
2022/12/30 07:13:25;;;;;;;10.30;3.20;;;5.90;1.00;;;;;;4999033;28;20273;-86
2022/12/30 07:15:54;;;;;;;8.07;2.83;;;5.90;1.00;;;;;;4988493;28;20238;-86
2022/12/30 07:18:21;;;;;;;6.43;2.47;;;5.90;1.00;;;;;;5001681;28;20227;-86
2022/12/30 07:20:48;;;;;;;5.72;2.30;;;5.90;1.00;;;;;;4989435;28;20235;-84
2022/12/30 07:23:15;;;;;;;7.22;2.65;;;5.90;1.00;;;;;;5002583;28;20283;-86
2022/12/30 07:25:45;;;;;;;8.75;3.00;;;5.80;1.00;;;;;;5000204;28;20715;-83
2022/12/30 07:28:12;;;;;;;10.23;2.97;;;5.80;1.00;;;;;;4991841;28;20240;-84
2022/12/30 07:30:40;;;;;;;10.20;2.65;;;5.80;1.00;;;;;;4998643;28;20795;-86
2022/12/30 07:33:13;;;;;;;10.80;3.33;;;5.80;1.00;;;;;;4986520;28;20239;-84
2022/12/30 07:35:40;;;;;;;9.15;3.22;;;5.80;1.00;;;;;;4990499;28;20326;-83
2022/12/30 07:38:07;;;;;;;8.63;3.55;;;5.80;1.00;;;;;;4987405;28;20251;-83
2022/12/30 07:40:36;;;;;;;9.80;3.58;;;5.80;1.00;;;;;;4976129;28;20363;-80
2022/12/30 07:43:03;;;;;;;10.57;2.85;;;5.80;1.00;;;;;;4968930;28;20299;-82
2022/12/30 07:45:30;;;;;;;5.80;2.35;;;5.80;1.00;;;;;;4980509;28;20365;-81
2022/12/30 07:47:58;;;;;;;12.25;3.15;;;5.80;1.00;;;;;;4989864;28;20579;-81
2022/12/30 07:50:28;;;;;;;8.18;2.65;;;5.80;1.00;;;;;;4984944;28;20247;-81
2022/12/30 07:52:55;;;;;;;8.63;3.13;;;5.80;1.00;;;;;;4998386;28;20685;-82
2022/12/30 07:55:22;;;;;;;8.52;2.95;;;5.80;1.00;;;;;;4992015;28;20320;-83
2022/12/30 07:57:49;;;;;;;8.60;2.70;;;5.80;1.00;;;;;;4999102;28;20223;-83
2022/12/30 08:00:17;;;;;;;10.55;3.15;;;5.80;1.00;;;;;;4979910;28;20752;-81
2022/12/30 08:02:45;;;;;;;6.88;2.30;;;5.80;1.00;;;;;;5001762;28;20286;-82
2022/12/30 08:05:13;;;;;;;7.25;2.33;;;5.80;1.00;;;;;;5005396;28;20222;-84
2022/12/30 08:07:42;;;;;;;10.20;2.80;;;5.70;1.00;;;;;;5010315;28;20271;-81
2022/12/30 08:10:09;;;;;;;5.97;2.17;;;5.80;1.00;;;;;;5010188;28;20326;-86
2022/12/30 08:12:37;;;;;;;9.02;2.60;;;5.70;1.00;;;;;;5005298;28;20242;-78
2022/12/30 08:15:06;;;;;;;5.88;2.35;;;5.70;1.00;;;;;;5009515;28;20239;-82
2022/12/30 08:17:33;;;;;;;9.18;4.07;;;5.70;1.00;;;;;;5023389;28;20234;-83
2022/12/30 08:20:00;;;;;;;8.38;2.35;;;5.80;1.00;;;;;;5017528;28;20230;-82
2022/12/30 08:22:28;;;;;;;10.38;3.63;;;5.90;1.00;;;;;;5015454;28;20234;-82
2022/12/30 08:24:58;;;;;;;8.68;3.50;;;6.20;1.00;;;;;;5021102;28;20243;-82
2022/12/30 08:27:25;;;;;;;9.35;3.38;;;6.60;1.00;;;;;;5020350;28;20231;-81
2022/12/30 08:29:53;;;;;;;8.65;3.35;;;6.80;1.00;;;;;;5016712;28;20254;-81
2022/12/30 08:32:21;;;;;;;7.15;3.17;;;6.80;1.00;;;;;;5016593;28;20273;-81
2022/12/30 08:34:49;;;;;;;9.75;2.90;;;6.70;1.00;;;;;;5009121;28;20327;-82
2022/12/30 08:37:16;;;;;;;8.45;2.97;;;6.80;1.00;;;;;;5015201;28;20259;-81
2022/12/30 08:39:43;;;;;;;11.57;2.75;;;6.90;1.00;;;;;;5017800;28;20294;-82
2022/12/30 08:42:11;;;;;;;7.95;3.47;;;7.10;1.00;;;;;;5006208;28;20235;-81
2022/12/30 08:44:38;;;;;;;10.60;2.78;;;7.40;1.00;;;;;;5016866;28;20227;-81
2022/12/30 08:47:07;;;;;;;8.40;3.00;;;7.50;1.00;;;;;;5009634;28;20295;-80
2022/12/30 08:49:34;;;;;;;6.38;1.92;;;7.60;1.00;;;;;;5013180;28;20347;-83
2022/12/30 08:52:02;;;;;;;7.60;2.35;;;7.40;1.00;;;;;;5012832;28;20699;-81
2022/12/30 08:54:30;;;;;;;7.05;2.45;;;7.40;1.00;;;;;;5016141;28;20227;-82
2022/12/30 08:56:57;;;;;;;7.63;2.90;;;7.30;1.00;;;;;;5015413;28;20238;-81
2022/12/30 08:59:28;;;;;;;8.88;2.80;;;7.10;1.00;;;;;;5018650;28;20273;-82
2022/12/30 09:01:55;;;;;;;11.60;2.97;;;7.10;1.00;;;;;;5022194;28;20239;-81
2022/12/30 09:04:23;;;;;;;9.15;2.92;;;7.10;1.00;;;;;;5022074;28;20239;-81
2022/12/30 09:06:51;;;;;;;12.63;2.30;;;7.20;1.00;;;;;;5007842;28;20235;-82
2022/12/30 09:09:19;;;;;;;8.85;2.90;;;7.30;1.00;;;;;;5020167;28;20242;-82
2022/12/30 09:11:47;;;;;;;7.72;2.60;;;7.20;1.00;;;;;;5016500;28;20238;-81
2022/12/30 09:14:16;;;;;;;7.90;2.45;;;7.30;1.00;;;;;;5018515;28;20247;-83
2022/12/30 09:16:45;;;;;;;7.03;1.92;;;7.30;1.00;;;;;;5017210;28;20661;-81
2022/12/30 09:19:14;;;;;;;7.50;2.50;;;7.50;1.00;;;;;;5006995;28;21005;-80
2022/12/30 09:21:44;;;;;;;9.82;2.72;;;7.60;1.00;;;;;;5018905;28;20254;-81
2022/12/30 09:24:11;;;;;;;6.63;2.80;;;7.70;1.00;;;;;;5022511;28;20247;-83
2022/12/30 09:26:38;;;;;;;7.30;2.17;;;7.80;1.00;;;;;;5021352;28;20239;-83
2022/12/30 09:29:05;;;;;;;9.82;2.88;;;7.90;1.00;;;;;;5024144;28;20231;-81
2022/12/30 09:31:35;;;;;;;10.27;3.60;;;7.90;1.00;;;;;;5030285;28;20722;-81
2022/12/30 09:34:05;;;;;;;6.50;2.42;;;8.00;1.00;;;;;;5028734;28;20730;-81
2022/12/30 09:36:32;;;;;;;6.13;2.42;;;8.00;1.00;;;;;;5022704;28;20227;-84
2022/12/30 09:38:59;;;;;;;7.18;1.80;;;8.00;1.00;;;;;;5007150;28;20314;-82
2022/12/30 09:44:32;;;;;;;11.07;2.60;;;8.40;1.00;;;;;;5019708;28;20749;-81
2022/12/30 09:47:13;;;;;;;6.70;2.47;;;8.70;1.00;;;;;;5026053;28;20254;-82
2022/12/30 09:49:48;;;;;;;6.85;2.55;;;8.80;1.00;;;;;;5026414;28;20554;-81
2022/12/30 09:52:24;;;;;;;8.23;2.72;;;8.70;1.00;;;;;;5017799;28;20445;-81
2022/12/30 09:55:03;;;;;;;7.78;2.95;;;8.70;1.00;;;;;;5012441;28;21945;-82
2022/12/30 09:57:33;;;;;;;11.07;2.50;;;8.80;1.00;;;;;;4980745;28;20247;-81
2022/12/30 10:00:07;;;;;;;10.20;2.70;;;9.20;1.00;;;;;;5007018;28;21372;-81
2022/12/30 10:02:50;;;;;;;8.63;2.50;;;10.10;1.00;;;;;;5009125;28;20478;-83
2022/12/30 10:05:36;;;;;;;7.33;2.73;;;10.60;1.00;;;;;;5002993;28;20492;-83
2022/12/30 10:08:13;;;;;;;7.33;2.40;;;10.90;1.00;;;;;;5005145;28;21279;-81
2022/12/30 10:13:58;;;;;;;7.43;2.00;;;11.10;1.00;;;;;;4998715;28;21355;-82
2022/12/30 10:16:43;;;;;;;7.30;2.43;;;11.00;1.00;;;;;;5003077;28;20426;-83
2022/12/30 10:19:36;;;;;;;6.37;2.30;;;10.80;1.00;;;;;;4998770;28;20488;-84
2022/12/30 10:22:19;;;;;;;8.73;3.47;;;11.00;1.00;;;;;;4987200;28;20439;-84
2022/12/30 10:25:03;;;;;;;8.33;3.50;;;12.00;1.00;;;;;;5004029;28;20497;-84
2022/12/30 10:27:49;;;;;;;9.50;2.97;;;12.50;1.00;;;;;;5023210;28;20445;-82
2022/12/30 10:30:48;;;;;;;6.50;2.30;;;12.40;1.00;;;;;;5271043;22;20443;-84
2022/12/30 10:33:19;;;;;;;10.57;2.47;;;12.20;1.00;;;;;;5007714;28;20429;-83
2022/12/30 10:35:50;;;;;;;5.93;2.10;;;11.80;1.00;;;;;;5017491;28;20510;-84
2022/12/30 10:38:28;;;;;;;7.30;2.00;;;11.70;1.00;;;;;;5015119;28;20438;-84
2022/12/30 10:41:18;;;;;;;5.63;2.40;;;12.40;1.00;;;;;;5038384;28;20414;-83
2022/12/30 10:43:57;;;;;;;8.90;2.17;;;13.00;1.00;;;;;;5015899;28;20481;-83
2022/12/30 10:46:46;;;;;;;6.40;2.53;;;12.50;1.00;;;;;;5007325;28;20452;-83
2022/12/30 10:52:22;;;;;;;6.70;2.17;;;12.90;1.00;;;;;;5003459;28;20551;-83
2022/12/30 10:54:51;;;;;;;7.30;2.60;;;13.40;1.00;;;;;;5024707;28;20434;-83
2022/12/30 10:57:25;;;;;;;9.03;3.23;;;13.30;1.00;;;;;;5045825;23;21180;-83
2022/12/30 10:59:59;;;;;;;6.90;2.57;;;13.40;1.00;;;;;;5045441;28;20439;-84
2022/12/30 11:02:46;;;;;;;8.33;2.40;;;13.40;1.00;;;;;;5047844;28;20442;-84
2022/12/30 11:05:38;;;;;;;9.47;2.97;;;13.30;1.00;;;;;;5010573;28;21021;-84
2022/12/30 11:08:23;;;;;;;9.30;2.17;;;13.10;1.00;;;;;;5036610;28;20465;-83
2022/12/30 11:11:05;;;;;;;7.73;2.30;;;13.20;1.00;;;;;;5049695;28;20476;-83
2022/12/30 11:16:26;;;;;;;9.13;2.83;;;14.10;1.00;;;;;;5014378;28;20456;-84
2022/12/30 11:19:01;;;;;;;10.87;2.30;;;14.60;1.00;;;;;;5032894;28;20595;-83
2022/12/30 11:21:30;;;;;;;6.53;1.90;;;15.50;1.00;;;;;;5030663;28;20479;-84
2022/12/30 11:30:01;;;;;;;5.80;2.17;;;15.30;1.00;;;;;;4993746;28;20429;-85
2022/12/30 11:32:28;;;;;;;7.27;2.20;;;14.90;1.00;;;;;;5029606;28;20474;-86
2022/12/30 11:35:37;;;;;;;10.57;3.50;;;14.50;1.00;;;;;;5038158;28;20448;-87
2022/12/30 11:38:51;;;;;;;;;;;;;;;;;;;;;
2022/12/30 11:41:43;;;;;;;8.50;1.87;;;14.00;1.00;;;;;;5019789;28;40312;-87
2022/12/30 11:44:40;;;;;;;8.57;2.70;;;13.40;1.00;;;;;;5007521;28;20537;-86
2022/12/30 11:47:21;;;;;;;6.93;2.17;;;13.30;1.00;;;;;;5027636;28;20408;-85
2022/12/30 11:49:50;;;;;;;8.60;2.30;;;13.10;1.00;;;;;;5029200;28;20541;-78
2022/12/30 11:52:24;;;;;;;7.27;2.73;;;12.90;1.00;;;;;;5040440;28;20434;-82
2022/12/30 11:54:57;;;;;;;9.97;2.10;;;12.70;1.00;;;;;;5049072;28;20524;-81
2022/12/30 11:57:30;;;;;;;7.20;2.50;;;12.60;1.00;;;;;;5042672;28;20446;-82
2022/12/30 12:00:02;;;;;;;7.77;2.33;;;12.60;1.00;;;;;;5027409;28;20462;-82
2022/12/30 12:02:35;;;;;;;7.63;2.60;;;12.80;1.00;;;;;;5036163;28;20430;-83
2022/12/30 12:05:06;;;;;;;8.03;2.57;;;13.20;1.00;;;;;;5053835;28;22431;-82
2022/12/30 12:07:58;;;;;;;7.57;2.23;;;13.40;1.00;;;;;;5032795;28;20532;-84
2022/12/30 12:10:31;;;;;;;12.07;3.00;;;13.60;1.00;;;;;;5030675;28;20436;-81
2022/12/30 12:13:02;;;;;;;12.27;2.67;;;14.10;1.00;;;;;;5040303;28;20439;-83
2022/12/30 12:15:49;;;;;;;9.27;1.93;;;14.20;1.00;;;;;;5033202;28;20466;-82
2022/12/30 12:18:22;;;;;;;9.67;3.40;;;14.00;1.00;;;;;;5000425;28;20488;-78
2022/12/30 12:21:19;;;;;;;11.30;3.23;;;14.00;1.00;;;;;;5031914;28;20475;-79
2022/12/30 12:23:58;;;;;;;11.53;2.90;;;13.70;1.00;;;;;;5023009;28;21195;-78
2022/12/30 12:26:39;;;;;;;8.27;2.30;;;13.50;1.00;;;;;;5023438;28;20475;-83
2022/12/30 12:29:11;;;;;;;9.20;2.33;;;13.10;1.00;;;;;;5018984;28;20462;-79
2022/12/30 12:32:09;;;;;;;10.63;2.87;;;12.80;1.00;;;;;;5046023;28;20496;-86
2022/12/30 12:34:49;;;;;;;8.83;2.10;;;12.60;1.00;;;;;;5043530;28;20429;-80
2022/12/30 12:37:45;;;;;;;8.50;2.27;;;12.50;1.00;;;;;;5030384;28;21813;-79
2022/12/30 12:40:44;;;;;;;8.13;3.03;;;12.40;1.00;;;;;;5030659;28;20504;-80
2022/12/30 12:43:24;;;;;;;9.70;2.93;;;12.50;1.00;;;;;;5030865;28;21695;-80
2022/12/30 12:46:28;;;;;;;8.13;2.83;;;12.80;1.00;;;;;;5037594;28;20458;-82
2022/12/30 12:49:30;;;;;;;9.07;2.47;;;13.20;1.00;;;;;;5029209;28;20463;-81
2022/12/30 12:52:17;;;;;;;10.13;3.43;;;13.50;1.00;;;;;;5039022;28;20427;-84
2022/12/30 12:55:16;;;;;;;9.10;2.27;;;13.70;1.00;;;;;;5022336;28;20478;-81
2022/12/30 12:57:57;;;;;;;9.73;2.70;;;13.40;1.00;;;;;;5022808;28;20462;-79
2022/12/30 13:00:46;;;;;;;13.30;3.00;;;13.30;1.00;;;;;;5025062;28;20460;-82
2022/12/30 13:03:50;;;;;;;9.83;2.50;;;13.10;1.00;;;;;;5032150;28;20984;-80
2022/12/30 13:06:27;;;;;;;10.10;3.07;;;13.20;1.00;;;;;;5013328;28;20936;-79
2022/12/30 13:09:28;;;;;;;9.80;2.27;;;13.30;1.00;;;;;;5030831;28;20470;-81
2022/12/30 13:12:07;;;;;;;9.10;2.10;;;13.50;1.00;;;;;;5041180;28;20494;-81
2022/12/30 13:14:40;;;;;;;7.90;2.27;;;13.40;1.00;;;;;;5040931;28;20437;-80
2022/12/30 13:17:16;;;;;;;10.63;2.60;;;12.90;1.00;;;;;;5020590;28;20971;-80
2022/12/30 13:20:08;;;;;;;11.50;2.27;;;12.50;1.00;;;;;;5017433;28;20433;-79
2022/12/30 13:22:40;;;;;;;11.30;2.27;;;12.00;1.00;;;;;;5023639;28;20484;-81
2022/12/30 13:25:23;;;;;;;10.13;2.30;;;11.70;1.00;;;;;;5030131;28;20473;-80
2022/12/30 13:27:57;;;;;;;7.60;2.10;;;11.30;1.00;;;;;;5047334;28;20620;-81
2022/12/30 13:30:31;;;;;;;12.13;2.80;;;11.10;1.00;;;;;;5026159;28;20503;-78
2022/12/30 13:33:07;;;;;;;7.40;2.57;;;10.90;1.00;;;;;;5033023;28;21326;-81
2022/12/30 13:35:50;;;;;;;8.80;2.33;;;10.60;1.00;;;;;;5035312;28;20900;-81
2022/12/30 13:38:31;;;;;;;11.60;2.67;;;10.50;1.00;;;;;;5022797;28;20954;-80
2022/12/30 13:44:30;;;;;;;;;;;;;;;;;;;;;
2022/12/30 13:47:09;;;;;;;8.07;2.37;;;10.30;1.00;;;;;;5033178;28;40062;-87
2022/12/30 13:49:50;;;;;;;7.05;2.42;;;10.20;1.00;;;;;;5029697;28;20460;-88
2022/12/30 13:52:25;;;;;;;8.13;2.20;;;10.10;1.00;;;;;;5008318;28;20246;-87
2022/12/30 13:55:18;;;;;;;8.10;2.20;;;10.00;1.00;;;;;;5021208;28;20484;-87
2022/12/30 13:58:19;;;;;;;8.10;1.90;;;10.00;1.00;;;;;;5036418;28;20500;-88
2022/12/30 14:01:40;;;;;;;9.17;2.40;;;9.80;1.00;;;;;;5021920;28;20452;-88
2022/12/30 14:04:30;;;;;;;8.33;2.13;;;9.80;1.00;;;;;;4932779;28;20430;-87
2022/12/30 14:09:41;;;;;;;9.10;2.53;;;9.80;1.00;;;;;;4952875;28;20572;-87
2022/12/30 14:17:49;;;;;;;10.10;2.60;;;9.50;1.00;;;;;;1352115;26;20509;-86
2022/12/30 15:15:34;;;;;;;9.40;3.10;;;8.30;1.00;;;;;;6066634;22;4142111;-87
2022/12/30 15:18:36;;;;;;;9.60;2.30;;;8.20;1.00;;;;;;6153184;23;20254;-88
2022/12/30 15:21:37;;;;;;;9.97;2.90;;;8.10;1.00;;;;;;6164771;23;21049;-89
2022/12/30 15:30:29;;;;;;;12.52;3.45;;;7.90;1.00;;;;;;6134879;23;20396;-87
2022/12/30 15:33:25;;;;;;;8.90;3.08;;;7.80;1.00;;;;;;6164373;23;20239;-85
2022/12/30 15:39:06;;;;;;;7.50;2.97;;;7.80;1.00;;;;;;6161366;23;20250;-88
2022/12/30 15:41:38;;;;;;;9.20;3.20;;;7.70;1.00;;;;;;6148227;23;20392;-85
2022/12/30 15:44:35;;;;;;;9.23;3.03;;;7.70;1.00;;;;;;6141415;23;20221;-86
2022/12/30 15:47:20;;;;;;;8.43;2.75;;;7.70;1.00;;;;;;6124031;23;20219;-86
2022/12/30 15:50:29;;;;;;;10.70;3.00;;;7.70;1.00;;;;;;6154735;23;20357;-85
2022/12/30 15:53:06;;;;;;;12.10;3.33;;;7.70;1.00;;;;;;6149779;23;20207;-84
2022/12/30 15:55:46;;;;;;;8.65;2.80;;;7.70;1.00;;;;;;6150824;23;20223;-85
2022/12/30 15:58:34;;;;;;;9.30;2.88;;;7.70;1.00;;;;;;6150313;23;20246;-87
2022/12/30 16:01:11;;;;;;;10.60;3.60;;;7.70;1.00;;;;;;6146616;23;20680;-82
2022/12/30 16:03:38;;;;;;;10.10;3.90;;;7.70;1.00;;;;;;6130338;23;20289;-80
2022/12/30 16:06:07;;;;;;;12.18;3.67;;;7.60;1.00;;;;;;6140981;23;20275;-82
2022/12/30 16:08:38;;;;;;;11.75;3.90;;;7.60;1.00;;;;;;6141901;23;20216;-83
2022/12/30 16:11:08;;;;;;;8.63;3.90;;;7.60;1.00;;;;;;6142333;23;20314;-82
2022/12/30 16:13:38;;;;;;;10.13;4.10;;;7.70;1.00;;;;;;6142769;23;20286;-83
2022/12/30 16:16:18;;;;;;;7.72;3.30;;;7.70;1.00;;;;;;6135478;23;20220;-81
2022/12/30 16:19:01;;;;;;;8.85;3.40;;;7.70;1.00;;;;;;6139727;23;20223;-83
2022/12/30 16:21:28;;;;;;;9.32;4.65;;;7.60;1.00;;;;;;6135617;23;20569;-83
2022/12/30 16:23:56;;;;;;;10.15;3.50;;;7.60;1.00;;;;;;6136705;23;20943;-83
2022/12/30 16:26:29;;;;;;;11.67;3.80;;;7.60;1.00;;;;;;6135478;23;20251;-83
2022/12/30 16:29:08;;;;;;;9.20;2.90;;;7.60;1.00;;;;;;6136079;23;20424;-82
2022/12/30 16:31:35;;;;;;;6.65;2.80;;;7.60;1.00;;;;;;6137729;23;20845;-82
2022/12/30 16:34:05;;;;;;;8.55;3.28;;;7.60;1.00;;;;;;6136136;23;20200;-82
2022/12/30 16:36:33;;;;;;;8.38;3.50;;;7.60;1.00;;;;;;6140369;23;20302;-83
2022/12/30 16:39:06;;;;;;;10.68;3.60;;;7.60;1.00;;;;;;6138492;23;20216;-81
2022/12/30 16:41:35;;;;;;;12.68;3.53;;;7.60;1.00;;;;;;6136055;23;20311;-81